sensor_id;sensor_type;location;lat;lon;timestamp;P1;durP1;ratioP1;P2;durP2;ratioP2
51987;SDS011;38003;52.012;4.346;2022-08-11T00:02:29;6.78;;;3.80;;
51987;SDS011;38003;52.012;4.346;2022-08-11T00:05:03;4.22;;;3.50;;
51987;SDS011;38003;52.012;4.346;2022-08-11T00:07:33;5.22;;;3.42;;
51987;SDS011;38003;52.012;4.346;2022-08-11T00:10:08;6.05;;;3.95;;
51987;SDS011;38003;52.012;4.346;2022-08-11T00:12:38;5.25;;;3.50;;
51987;SDS011;38003;52.012;4.346;2022-08-11T00:15:07;3.83;;;3.50;;
51987;SDS011;38003;52.012;4.346;2022-08-11T00:17:36;6.22;;;3.50;;
51987;SDS011;38003;52.012;4.346;2022-08-11T00:20:07;4.32;;;3.65;;
51987;SDS011;38003;52.012;4.346;2022-08-11T00:22:43;3.85;;;3.40;;
51987;SDS011;38003;52.012;4.346;2022-08-11T00:25:14;5.72;;;3.45;;
51987;SDS011;38003;52.012;4.346;2022-08-11T00:27:44;4.50;;;3.60;;
51987;SDS011;38003;52.012;4.346;2022-08-11T00:30:13;5.40;;;3.80;;
51987;SDS011;38003;52.012;4.346;2022-08-11T00:32:42;5.38;;;3.78;;
51987;SDS011;38003;52.012;4.346;2022-08-11T00:35:22;4.15;;;3.75;;
51987;SDS011;38003;52.012;4.346;2022-08-11T00:38:13;4.97;;;3.60;;
51987;SDS011;38003;52.012;4.346;2022-08-11T00:40:44;4.20;;;3.80;;
51987;SDS011;38003;52.012;4.346;2022-08-11T00:43:22;5.68;;;3.70;;
51987;SDS011;38003;52.012;4.346;2022-08-11T00:46:08;3.97;;;3.40;;
51987;SDS011;38003;52.012;4.346;2022-08-11T00:48:45;6.25;;;3.40;;
51987;SDS011;38003;52.012;4.346;2022-08-11T00:51:35;4.82;;;3.92;;
51987;SDS011;38003;52.012;4.346;2022-08-11T00:54:38;5.20;;;3.42;;
51987;SDS011;38003;52.012;4.346;2022-08-11T00:57:37;4.38;;;3.60;;
51987;SDS011;38003;52.012;4.346;2022-08-11T01:00:31;4.82;;;3.38;;
51987;SDS011;38003;52.012;4.346;2022-08-11T01:03:10;6.07;;;3.58;;
51987;SDS011;38003;52.012;4.346;2022-08-11T01:06:02;4.38;;;3.42;;
51987;SDS011;38003;52.012;4.346;2022-08-11T01:14:58;3.95;;;3.55;;
51987;SDS011;38003;52.012;4.346;2022-08-11T01:21:08;4.82;;;3.58;;
51987;SDS011;38003;52.012;4.346;2022-08-11T01:30:17;7.75;;;3.72;;
51987;SDS011;38003;52.012;4.346;2022-08-11T01:50:26;4.70;;;3.78;;
51987;SDS011;38003;52.012;4.346;2022-08-11T01:53:20;10.43;;;3.85;;
51987;SDS011;38003;52.012;4.346;2022-08-11T01:56:03;4.03;;;3.70;;
51987;SDS011;38003;52.012;4.346;2022-08-11T01:58:42;3.58;;;3.25;;
51987;SDS011;38003;52.012;4.346;2022-08-11T02:01:22;8.45;;;3.53;;
51987;SDS011;38003;52.012;4.346;2022-08-11T02:04:03;5.15;;;3.53;;
51987;SDS011;38003;52.012;4.346;2022-08-11T02:06:40;5.07;;;3.42;;
51987;SDS011;38003;52.012;4.346;2022-08-11T02:09:37;4.75;;;3.45;;
51987;SDS011;38003;52.012;4.346;2022-08-11T02:12:25;5.25;;;2.90;;
51987;SDS011;38003;52.012;4.346;2022-08-11T02:15:13;4.80;;;3.40;;
51987;SDS011;38003;52.012;4.346;2022-08-11T02:17:49;5.05;;;3.53;;
51987;SDS011;38003;52.012;4.346;2022-08-11T02:20:29;3.80;;;3.50;;
51987;SDS011;38003;52.012;4.346;2022-08-11T02:23:24;5.28;;;3.45;;
51987;SDS011;38003;52.012;4.346;2022-08-11T02:26:29;3.80;;;3.38;;
51987;SDS011;38003;52.012;4.346;2022-08-11T02:29:04;3.67;;;3.00;;
51987;SDS011;38003;52.012;4.346;2022-08-11T02:31:40;4.22;;;3.35;;
51987;SDS011;38003;52.012;4.346;2022-08-11T02:34:55;6.35;;;3.60;;
51987;SDS011;38003;52.012;4.346;2022-08-11T02:37:33;4.53;;;4.00;;
51987;SDS011;38003;52.012;4.346;2022-08-11T02:40:15;4.38;;;3.65;;
51987;SDS011;38003;52.012;4.346;2022-08-11T02:42:53;4.32;;;3.38;;
51987;SDS011;38003;52.012;4.346;2022-08-11T02:45:30;6.50;;;3.90;;
51987;SDS011;38003;52.012;4.346;2022-08-11T02:48:07;4.80;;;3.42;;
51987;SDS011;38003;52.012;4.346;2022-08-11T02:51:12;3.90;;;3.40;;
51987;SDS011;38003;52.012;4.346;2022-08-11T02:53:50;4.32;;;3.42;;
51987;SDS011;38003;52.012;4.346;2022-08-11T02:56:30;3.83;;;3.33;;
51987;SDS011;38003;52.012;4.346;2022-08-11T02:59:13;5.15;;;3.50;;
51987;SDS011;38003;52.012;4.346;2022-08-11T03:02:09;4.93;;;3.80;;
51987;SDS011;38003;52.012;4.346;2022-08-11T03:04:44;4.13;;;3.72;;
51987;SDS011;38003;52.012;4.346;2022-08-11T03:07:27;5.93;;;3.63;;
51987;SDS011;38003;52.012;4.346;2022-08-11T03:10:05;5.18;;;3.60;;
51987;SDS011;38003;52.012;4.346;2022-08-11T03:12:40;5.65;;;3.70;;
51987;SDS011;38003;52.012;4.346;2022-08-11T03:15:40;7.15;;;3.80;;
51987;SDS011;38003;52.012;4.346;2022-08-11T03:18:33;6.53;;;3.88;;
51987;SDS011;38003;52.012;4.346;2022-08-11T03:21:08;5.03;;;3.70;;
51987;SDS011;38003;52.012;4.346;2022-08-11T03:23:44;4.85;;;3.60;;
51987;SDS011;38003;52.012;4.346;2022-08-11T03:26:22;5.43;;;4.57;;
51987;SDS011;38003;52.012;4.346;2022-08-11T03:29:00;4.20;;;3.80;;
51987;SDS011;38003;52.012;4.346;2022-08-11T03:31:34;4.82;;;3.70;;
51987;SDS011;38003;52.012;4.346;2022-08-11T03:34:12;7.43;;;3.38;;
51987;SDS011;38003;52.012;4.346;2022-08-11T03:36:52;4.95;;;3.90;;
51987;SDS011;38003;52.012;4.346;2022-08-11T03:40:03;5.82;;;3.88;;
51987;SDS011;38003;52.012;4.346;2022-08-11T03:42:45;8.07;;;4.70;;
51987;SDS011;38003;52.012;4.346;2022-08-11T03:45:23;4.38;;;3.72;;
51987;SDS011;38003;52.012;4.346;2022-08-11T03:47:56;4.72;;;3.67;;
51987;SDS011;38003;52.012;4.346;2022-08-11T03:50:45;5.03;;;3.38;;
51987;SDS011;38003;52.012;4.346;2022-08-11T03:53:31;5.22;;;4.25;;
51987;SDS011;38003;52.012;4.346;2022-08-11T03:56:22;4.40;;;4.00;;
51987;SDS011;38003;52.012;4.346;2022-08-11T04:02:40;6.65;;;4.22;;
51987;SDS011;38003;52.012;4.346;2022-08-11T04:05:48;4.40;;;4.00;;
51987;SDS011;38003;52.012;4.346;2022-08-11T04:09:09;5.43;;;4.20;;
51987;SDS011;38003;52.012;4.346;2022-08-11T04:12:22;10.80;;;4.30;;
51987;SDS011;38003;52.012;4.346;2022-08-11T04:18:46;5.05;;;4.20;;
51987;SDS011;38003;52.012;4.346;2022-08-11T04:37:46;6.80;;;4.13;;
51987;SDS011;38003;52.012;4.346;2022-08-11T04:40:52;6.30;;;4.13;;
51987;SDS011;38003;52.012;4.346;2022-08-11T04:43:58;6.25;;;4.68;;
51987;SDS011;38003;52.012;4.346;2022-08-11T04:46:52;6.10;;;4.75;;
51987;SDS011;38003;52.012;4.346;2022-08-11T04:52:59;5.22;;;4.60;;
51987;SDS011;38003;52.012;4.346;2022-08-11T04:56:04;5.45;;;4.65;;
51987;SDS011;38003;52.012;4.346;2022-08-11T05:05:19;5.72;;;4.35;;
51987;SDS011;38003;52.012;4.346;2022-08-11T05:08:05;6.43;;;4.63;;
51987;SDS011;38003;52.012;4.346;2022-08-11T05:11:02;7.38;;;4.93;;
51987;SDS011;38003;52.012;4.346;2022-08-11T05:13:47;6.32;;;4.63;;
51987;SDS011;38003;52.012;4.346;2022-08-11T05:16:43;6.60;;;4.70;;
51987;SDS011;38003;52.012;4.346;2022-08-11T05:19:33;5.63;;;5.00;;
51987;SDS011;38003;52.012;4.346;2022-08-11T05:22:20;5.85;;;5.13;;
51987;SDS011;38003;52.012;4.346;2022-08-11T05:25:17;5.28;;;4.78;;
51987;SDS011;38003;52.012;4.346;2022-08-11T05:28:31;6.65;;;4.88;;
51987;SDS011;38003;52.012;4.346;2022-08-11T05:31:19;5.70;;;5.10;;
51987;SDS011;38003;52.012;4.346;2022-08-11T05:34:10;6.68;;;5.55;;
51987;SDS011;38003;52.012;4.346;2022-08-11T05:37:00;7.25;;;4.78;;
51987;SDS011;38003;52.012;4.346;2022-08-11T05:39:52;5.47;;;4.55;;
51987;SDS011;38003;52.012;4.346;2022-08-11T05:42:49;6.10;;;4.97;;
51987;SDS011;38003;52.012;4.346;2022-08-11T05:45:39;5.28;;;4.47;;
51987;SDS011;38003;52.012;4.346;2022-08-11T05:48:31;4.95;;;4.40;;
51987;SDS011;38003;52.012;4.346;2022-08-11T05:51:18;7.53;;;4.53;;
51987;SDS011;38003;52.012;4.346;2022-08-11T05:54:20;6.43;;;4.65;;
51987;SDS011;38003;52.012;4.346;2022-08-11T05:57:07;5.75;;;5.10;;
51987;SDS011;38003;52.012;4.346;2022-08-11T05:59:59;7.68;;;4.63;;
51987;SDS011;38003;52.012;4.346;2022-08-11T06:02:28;5.85;;;4.95;;
51987;SDS011;38003;52.012;4.346;2022-08-11T06:04:57;9.82;;;4.80;;
51987;SDS011;38003;52.012;4.346;2022-08-11T06:07:28;6.18;;;4.68;;
51987;SDS011;38003;52.012;4.346;2022-08-11T06:10:15;6.38;;;4.32;;
51987;SDS011;38003;52.012;4.346;2022-08-11T06:12:53;5.20;;;4.63;;
51987;SDS011;38003;52.012;4.346;2022-08-11T06:15:25;4.97;;;4.38;;
51987;SDS011;38003;52.012;4.346;2022-08-11T06:17:54;6.78;;;4.65;;
51987;SDS011;38003;52.012;4.346;2022-08-11T06:20:23;7.05;;;4.30;;
51987;SDS011;38003;52.012;4.346;2022-08-11T06:22:56;6.97;;;4.60;;
51987;SDS011;38003;52.012;4.346;2022-08-11T06:25:30;7.97;;;4.72;;
51987;SDS011;38003;52.012;4.346;2022-08-11T06:28:02;8.30;;;4.28;;
51987;SDS011;38003;52.012;4.346;2022-08-11T06:30:34;4.95;;;4.45;;
51987;SDS011;38003;52.012;4.346;2022-08-11T06:33:08;7.47;;;4.90;;
51987;SDS011;38003;52.012;4.346;2022-08-11T06:35:44;5.60;;;4.63;;
51987;SDS011;38003;52.012;4.346;2022-08-11T06:38:22;6.50;;;4.50;;
51987;SDS011;38003;52.012;4.346;2022-08-11T06:41:06;4.72;;;4.13;;
51987;SDS011;38003;52.012;4.346;2022-08-11T06:44:13;5.47;;;4.32;;
51987;SDS011;38003;52.012;4.346;2022-08-11T06:46:48;5.35;;;4.18;;
51987;SDS011;38003;52.012;4.346;2022-08-11T06:49:19;5.28;;;4.20;;
51987;SDS011;38003;52.012;4.346;2022-08-11T06:52:07;5.40;;;4.00;;
51987;SDS011;38003;52.012;4.346;2022-08-11T06:54:59;5.43;;;4.25;;
51987;SDS011;38003;52.012;4.346;2022-08-11T06:57:56;5.85;;;3.63;;
51987;SDS011;38003;52.012;4.346;2022-08-11T07:00:42;5.40;;;3.78;;
51987;SDS011;38003;52.012;4.346;2022-08-11T07:03:16;5.68;;;3.65;;
51987;SDS011;38003;52.012;4.346;2022-08-11T07:05:46;7.70;;;3.72;;
51987;SDS011;38003;52.012;4.346;2022-08-11T07:15:16;5.32;;;3.85;;
51987;SDS011;38003;52.012;4.346;2022-08-11T07:18:24;6.05;;;4.03;;
51987;SDS011;38003;52.012;4.346;2022-08-11T07:21:13;7.20;;;4.13;;
51987;SDS011;38003;52.012;4.346;2022-08-11T07:24:24;3.97;;;3.45;;
51987;SDS011;38003;52.012;4.346;2022-08-11T07:27:29;7.45;;;3.85;;
51987;SDS011;38003;52.012;4.346;2022-08-11T07:30:19;5.20;;;3.53;;
51987;SDS011;38003;52.012;4.346;2022-08-11T07:32:49;4.18;;;3.40;;
51987;SDS011;38003;52.012;4.346;2022-08-11T07:35:21;3.85;;;3.38;;
51987;SDS011;38003;52.012;4.346;2022-08-11T07:37:55;6.30;;;3.63;;
51987;SDS011;38003;52.012;4.346;2022-08-11T07:40:28;8.02;;;3.70;;
51987;SDS011;38003;52.012;4.346;2022-08-11T07:42:58;6.00;;;3.50;;
51987;SDS011;38003;52.012;4.346;2022-08-11T07:45:28;5.88;;;3.85;;
51987;SDS011;38003;52.012;4.346;2022-08-11T07:48:15;8.38;;;3.80;;
51987;SDS011;38003;52.012;4.346;2022-08-11T07:51:03;8.57;;;3.63;;
51987;SDS011;38003;52.012;4.346;2022-08-11T07:53:49;7.13;;;3.30;;
51987;SDS011;38003;52.012;4.346;2022-08-11T07:56:32;5.03;;;3.33;;
51987;SDS011;38003;52.012;4.346;2022-08-11T07:59:21;4.03;;;3.00;;
51987;SDS011;38003;52.012;4.346;2022-08-11T08:02:27;5.90;;;3.15;;
51987;SDS011;38003;52.012;4.346;2022-08-11T08:05:15;11.90;;;3.63;;
51987;SDS011;38003;52.012;4.346;2022-08-11T08:08:04;8.52;;;3.22;;
51987;SDS011;38003;52.012;4.346;2022-08-11T08:10:51;5.97;;;3.25;;
51987;SDS011;38003;52.012;4.346;2022-08-11T08:13:40;4.55;;;3.40;;
51987;SDS011;38003;52.012;4.346;2022-08-11T08:16:27;4.00;;;2.72;;
51987;SDS011;38003;52.012;4.346;2022-08-11T08:19:15;5.97;;;3.40;;
51987;SDS011;38003;52.012;4.346;2022-08-11T08:21:45;5.15;;;3.05;;
51987;SDS011;38003;52.012;4.346;2022-08-11T08:24:16;3.47;;;2.90;;
51987;SDS011;38003;52.012;4.346;2022-08-11T08:26:47;5.00;;;3.00;;
51987;SDS011;38003;52.012;4.346;2022-08-11T08:29:24;5.88;;;2.85;;
51987;SDS011;38003;52.012;4.346;2022-08-11T08:32:11;8.50;;;3.00;;
51987;SDS011;38003;52.012;4.346;2022-08-11T08:34:41;4.13;;;2.63;;
51987;SDS011;38003;52.012;4.346;2022-08-11T08:37:10;3.35;;;2.78;;
51987;SDS011;38003;52.012;4.346;2022-08-11T08:40:00;5.45;;;2.72;;
51987;SDS011;38003;52.012;4.346;2022-08-11T08:42:30;5.65;;;2.70;;
51987;SDS011;38003;52.012;4.346;2022-08-11T08:45:10;3.88;;;2.83;;
51987;SDS011;38003;52.012;4.346;2022-08-11T08:47:41;3.63;;;2.40;;
51987;SDS011;38003;52.012;4.346;2022-08-11T08:50:19;3.40;;;2.55;;
51987;SDS011;38003;52.012;4.346;2022-08-11T08:52:53;4.07;;;2.60;;
51987;SDS011;38003;52.012;4.346;2022-08-11T08:55:29;3.50;;;2.53;;
51987;SDS011;38003;52.012;4.346;2022-08-11T08:57:58;4.60;;;2.70;;
51987;SDS011;38003;52.012;4.346;2022-08-11T09:00:28;6.75;;;2.80;;
51987;SDS011;38003;52.012;4.346;2022-08-11T09:03:06;5.47;;;2.70;;
51987;SDS011;38003;52.012;4.346;2022-08-11T09:05:57;5.75;;;2.30;;
51987;SDS011;38003;52.012;4.346;2022-08-11T09:08:26;5.53;;;2.65;;
51987;SDS011;38003;52.012;4.346;2022-08-11T09:10:58;7.07;;;2.50;;
51987;SDS011;38003;52.012;4.346;2022-08-11T09:13:45;4.47;;;2.40;;
51987;SDS011;38003;52.012;4.346;2022-08-11T09:16:31;6.90;;;2.50;;
51987;SDS011;38003;52.012;4.346;2022-08-11T09:19:00;9.98;;;2.40;;
51987;SDS011;38003;52.012;4.346;2022-08-11T09:21:29;5.40;;;2.60;;
51987;SDS011;38003;52.012;4.346;2022-08-11T09:24:15;4.70;;;2.55;;
51987;SDS011;38003;52.012;4.346;2022-08-11T09:27:04;4.55;;;2.40;;
51987;SDS011;38003;52.012;4.346;2022-08-11T09:29:33;2.83;;;2.55;;
51987;SDS011;38003;52.012;4.346;2022-08-11T09:32:04;3.95;;;2.83;;
51987;SDS011;38003;52.012;4.346;2022-08-11T09:34:34;7.53;;;3.42;;
51987;SDS011;38003;52.012;4.346;2022-08-11T09:37:03;9.73;;;3.58;;
51987;SDS011;38003;52.012;4.346;2022-08-11T09:40:10;9.23;;;3.63;;
51987;SDS011;38003;52.012;4.346;2022-08-11T09:42:57;4.75;;;2.90;;
51987;SDS011;38003;52.012;4.346;2022-08-11T09:45:44;4.45;;;2.58;;
51987;SDS011;38003;52.012;4.346;2022-08-11T09:48:16;5.85;;;2.22;;
51987;SDS011;38003;52.012;4.346;2022-08-11T09:50:45;3.97;;;2.45;;
51987;SDS011;38003;52.012;4.346;2022-08-11T09:53:16;5.15;;;2.33;;
51987;SDS011;38003;52.012;4.346;2022-08-11T09:56:06;4.78;;;2.20;;
51987;SDS011;38003;52.012;4.346;2022-08-11T09:58:56;3.70;;;2.45;;
51987;SDS011;38003;52.012;4.346;2022-08-11T10:01:26;2.70;;;2.28;;
51987;SDS011;38003;52.012;4.346;2022-08-11T10:03:58;3.50;;;2.50;;
51987;SDS011;38003;52.012;4.346;2022-08-11T10:06:44;5.68;;;2.40;;
51987;SDS011;38003;52.012;4.346;2022-08-11T10:09:33;3.85;;;2.00;;
51987;SDS011;38003;52.012;4.346;2022-08-11T10:12:08;5.18;;;2.28;;
51987;SDS011;38003;52.012;4.346;2022-08-11T10:14:41;4.15;;;2.05;;
51987;SDS011;38003;52.012;4.346;2022-08-11T10:17:29;4.20;;;2.40;;
51987;SDS011;38003;52.012;4.346;2022-08-11T10:20:00;5.90;;;2.53;;
51987;SDS011;38003;52.012;4.346;2022-08-11T10:22:31;4.93;;;2.45;;
51987;SDS011;38003;52.012;4.346;2022-08-11T10:25:19;7.10;;;2.50;;
51987;SDS011;38003;52.012;4.346;2022-08-11T10:28:06;6.28;;;2.47;;
51987;SDS011;38003;52.012;4.346;2022-08-11T10:30:57;8.65;;;2.40;;
51987;SDS011;38003;52.012;4.346;2022-08-11T10:33:44;4.50;;;2.50;;
51987;SDS011;38003;52.012;4.346;2022-08-11T10:36:29;4.93;;;2.28;;
51987;SDS011;38003;52.012;4.346;2022-08-11T10:38:59;3.40;;;2.10;;
51987;SDS011;38003;52.012;4.346;2022-08-11T10:41:29;4.30;;;2.00;;
51987;SDS011;38003;52.012;4.346;2022-08-11T10:44:36;3.40;;;1.95;;
51987;SDS011;38003;52.012;4.346;2022-08-11T10:47:07;4.03;;;2.35;;
51987;SDS011;38003;52.012;4.346;2022-08-11T10:49:55;3.15;;;1.90;;
51987;SDS011;38003;52.012;4.346;2022-08-11T10:52:42;3.55;;;2.20;;
51987;SDS011;38003;52.012;4.346;2022-08-11T10:55:31;5.25;;;1.92;;
51987;SDS011;38003;52.012;4.346;2022-08-11T10:58:17;2.75;;;1.95;;
51987;SDS011;38003;52.012;4.346;2022-08-11T11:01:03;3.53;;;2.10;;
51987;SDS011;38003;52.012;4.346;2022-08-11T11:03:33;3.25;;;1.73;;
51987;SDS011;38003;52.012;4.346;2022-08-11T11:06:05;7.53;;;1.90;;
51987;SDS011;38003;52.012;4.346;2022-08-11T11:08:56;2.00;;;1.80;;
51987;SDS011;38003;52.012;4.346;2022-08-11T11:11:32;3.80;;;1.95;;
51987;SDS011;38003;52.012;4.346;2022-08-11T11:14:21;3.30;;;1.80;;
51987;SDS011;38003;52.012;4.346;2022-08-11T11:17:17;4.32;;;1.70;;
51987;SDS011;38003;52.012;4.346;2022-08-11T11:20:25;2.67;;;1.83;;
51987;SDS011;38003;52.012;4.346;2022-08-11T11:23:04;3.75;;;1.75;;
51987;SDS011;38003;52.012;4.346;2022-08-11T11:25:37;2.38;;;1.90;;
51987;SDS011;38003;52.012;4.346;2022-08-11T11:28:46;2.78;;;2.00;;
51987;SDS011;38003;52.012;4.346;2022-08-11T11:31:27;3.92;;;1.73;;
51987;SDS011;38003;52.012;4.346;2022-08-11T11:36:55;4.85;;;2.22;;
51987;SDS011;38003;52.012;4.346;2022-08-11T11:39:25;4.97;;;1.90;;
51987;SDS011;38003;52.012;4.346;2022-08-11T11:41:56;2.45;;;1.70;;
51987;SDS011;38003;52.012;4.346;2022-08-11T11:44:28;4.20;;;1.83;;
51987;SDS011;38003;52.012;4.346;2022-08-11T11:46:57;3.20;;;2.25;;
51987;SDS011;38003;52.012;4.346;2022-08-11T11:49:26;2.50;;;1.83;;
51987;SDS011;38003;52.012;4.346;2022-08-11T11:51:58;2.17;;;1.98;;
51987;SDS011;38003;52.012;4.346;2022-08-11T11:54:27;3.90;;;1.92;;
51987;SDS011;38003;52.012;4.346;2022-08-11T11:56:59;4.55;;;1.92;;
51987;SDS011;38003;52.012;4.346;2022-08-11T11:59:51;2.85;;;1.77;;
51987;SDS011;38003;52.012;4.346;2022-08-11T12:02:39;4.07;;;1.73;;
51987;SDS011;38003;52.012;4.346;2022-08-11T12:05:08;3.70;;;1.83;;
51987;SDS011;38003;52.012;4.346;2022-08-11T12:07:39;2.40;;;1.80;;
51987;SDS011;38003;52.012;4.346;2022-08-11T12:10:38;2.30;;;2.03;;
51987;SDS011;38003;52.012;4.346;2022-08-11T12:13:09;4.32;;;2.10;;
51987;SDS011;38003;52.012;4.346;2022-08-11T12:15:55;3.90;;;1.95;;
51987;SDS011;38003;52.012;4.346;2022-08-11T12:18:49;3.50;;;1.65;;
51987;SDS011;38003;52.012;4.346;2022-08-11T12:21:19;4.88;;;1.92;;
51987;SDS011;38003;52.012;4.346;2022-08-11T12:23:49;7.47;;;2.15;;
51987;SDS011;38003;52.012;4.346;2022-08-11T12:26:35;2.35;;;2.00;;
51987;SDS011;38003;52.012;4.346;2022-08-11T12:29:39;3.33;;;2.08;;
51987;SDS011;38003;52.012;4.346;2022-08-11T12:32:09;4.65;;;2.10;;
51987;SDS011;38003;52.012;4.346;2022-08-11T12:34:38;3.63;;;2.08;;
51987;SDS011;38003;52.012;4.346;2022-08-11T12:37:06;4.25;;;2.10;;
51987;SDS011;38003;52.012;4.346;2022-08-11T12:39:43;4.65;;;2.75;;
51987;SDS011;38003;52.012;4.346;2022-08-11T12:42:50;6.03;;;2.05;;
51987;SDS011;38003;52.012;4.346;2022-08-11T12:45:50;4.70;;;1.90;;
51987;SDS011;38003;52.012;4.346;2022-08-11T12:48:25;3.70;;;1.60;;
51987;SDS011;38003;52.012;4.346;2022-08-11T12:51:27;2.13;;;1.77;;
51987;SDS011;38003;52.012;4.346;2022-08-11T12:54:38;3.25;;;1.65;;
51987;SDS011;38003;52.012;4.346;2022-08-11T12:57:12;2.47;;;1.77;;
51987;SDS011;38003;52.012;4.346;2022-08-11T13:00:03;2.58;;;1.70;;
51987;SDS011;38003;52.012;4.346;2022-08-11T13:02:49;4.47;;;1.92;;
51987;SDS011;38003;52.012;4.346;2022-08-11T13:05:35;4.55;;;1.50;;
51987;SDS011;38003;52.012;4.346;2022-08-11T13:08:10;3.70;;;1.80;;
51987;SDS011;38003;52.012;4.346;2022-08-11T13:10:41;3.28;;;1.83;;
51987;SDS011;38003;52.012;4.346;2022-08-11T13:13:27;3.20;;;2.00;;
51987;SDS011;38003;52.012;4.346;2022-08-11T13:16:16;3.85;;;1.83;;
51987;SDS011;38003;52.012;4.346;2022-08-11T13:18:45;2.40;;;1.90;;
51987;SDS011;38003;52.012;4.346;2022-08-11T13:21:15;2.45;;;1.95;;
51987;SDS011;38003;52.012;4.346;2022-08-11T13:23:49;4.05;;;2.00;;
51987;SDS011;38003;52.012;4.346;2022-08-11T13:26:30;4.95;;;1.95;;
51987;SDS011;38003;52.012;4.346;2022-08-11T13:29:13;3.42;;;1.80;;
51987;SDS011;38003;52.012;4.346;2022-08-11T13:31:44;2.95;;;1.77;;
51987;SDS011;38003;52.012;4.346;2022-08-11T13:34:15;1.65;;;1.55;;
51987;SDS011;38003;52.012;4.346;2022-08-11T13:36:47;2.03;;;1.50;;
51987;SDS011;38003;52.012;4.346;2022-08-11T13:39:18;1.90;;;1.50;;
51987;SDS011;38003;52.012;4.346;2022-08-11T13:41:51;2.38;;;1.63;;
51987;SDS011;38003;52.012;4.346;2022-08-11T13:44:23;2.38;;;1.70;;
51987;SDS011;38003;52.012;4.346;2022-08-11T13:46:55;4.60;;;1.92;;
51987;SDS011;38003;52.012;4.346;2022-08-11T13:49:26;1.90;;;1.50;;
51987;SDS011;38003;52.012;4.346;2022-08-11T13:51:56;2.78;;;1.70;;
51987;SDS011;38003;52.012;4.346;2022-08-11T13:54:27;3.53;;;1.60;;
51987;SDS011;38003;52.012;4.346;2022-08-11T13:57:02;3.30;;;1.80;;
51987;SDS011;38003;52.012;4.346;2022-08-11T13:59:39;3.60;;;1.90;;
51987;SDS011;38003;52.012;4.346;2022-08-11T14:02:18;2.17;;;1.50;;
51987;SDS011;38003;52.012;4.346;2022-08-11T14:04:56;3.88;;;1.80;;
51987;SDS011;38003;52.012;4.346;2022-08-11T14:07:33;6.07;;;1.70;;
51987;SDS011;38003;52.012;4.346;2022-08-11T14:10:05;3.22;;;2.00;;
51987;SDS011;38003;52.012;4.346;2022-08-11T14:12:36;3.78;;;1.92;;
51987;SDS011;38003;52.012;4.346;2022-08-11T14:15:27;2.92;;;2.05;;
51987;SDS011;38003;52.012;4.346;2022-08-11T14:18:00;2.25;;;1.75;;
51987;SDS011;38003;52.012;4.346;2022-08-11T14:20:34;5.28;;;1.83;;
51987;SDS011;38003;52.012;4.346;2022-08-11T14:23:24;5.72;;;1.80;;
51987;SDS011;38003;52.012;4.346;2022-08-11T14:25:54;4.18;;;2.00;;
51987;SDS011;38003;52.012;4.346;2022-08-11T14:28:42;3.78;;;1.95;;
51987;SDS011;38003;52.012;4.346;2022-08-11T14:31:12;4.22;;;2.10;;
51987;SDS011;38003;52.012;4.346;2022-08-11T14:33:47;5.05;;;1.85;;
51987;SDS011;38003;52.012;4.346;2022-08-11T14:36:29;6.32;;;1.90;;
51987;SDS011;38003;52.012;4.346;2022-08-11T14:39:01;5.68;;;1.90;;
51987;SDS011;38003;52.012;4.346;2022-08-11T14:41:32;8.18;;;2.30;;
51987;SDS011;38003;52.012;4.346;2022-08-11T14:44:39;3.72;;;2.00;;
51987;SDS011;38003;52.012;4.346;2022-08-11T14:47:42;3.88;;;2.25;;
51987;SDS011;38003;52.012;4.346;2022-08-11T14:50:15;5.53;;;2.10;;
51987;SDS011;38003;52.012;4.346;2022-08-11T14:52:49;3.15;;;2.10;;
51987;SDS011;38003;52.012;4.346;2022-08-11T14:55:21;2.95;;;1.80;;
51987;SDS011;38003;52.012;4.346;2022-08-11T14:58:08;4.38;;;2.20;;
51987;SDS011;38003;52.012;4.346;2022-08-11T15:00:40;2.05;;;1.85;;
51987;SDS011;38003;52.012;4.346;2022-08-11T15:03:10;3.33;;;2.20;;
51987;SDS011;38003;52.012;4.346;2022-08-11T15:05:46;4.28;;;2.03;;
51987;SDS011;38003;52.012;4.346;2022-08-11T15:08:23;4.68;;;2.13;;
51987;SDS011;38003;52.012;4.346;2022-08-11T15:11:07;3.90;;;2.03;;
51987;SDS011;38003;52.012;4.346;2022-08-11T15:13:57;4.70;;;1.90;;
51987;SDS011;38003;52.012;4.346;2022-08-11T15:16:28;5.65;;;1.80;;
51987;SDS011;38003;52.012;4.346;2022-08-11T15:19:14;1.88;;;1.77;;
51987;SDS011;38003;52.012;4.346;2022-08-11T15:21:46;4.35;;;2.00;;
51987;SDS011;38003;52.012;4.346;2022-08-11T15:24:35;4.07;;;1.95;;
51987;SDS011;38003;52.012;4.346;2022-08-11T15:27:04;4.80;;;1.92;;
51987;SDS011;38003;52.012;4.346;2022-08-11T15:29:53;4.00;;;1.90;;
51987;SDS011;38003;52.012;4.346;2022-08-11T15:33:03;3.05;;;2.10;;
51987;SDS011;38003;52.012;4.346;2022-08-11T15:35:51;3.30;;;2.00;;
51987;SDS011;38003;52.012;4.346;2022-08-11T15:38:39;3.58;;;1.90;;
51987;SDS011;38003;52.012;4.346;2022-08-11T15:41:22;2.10;;;1.90;;
51987;SDS011;38003;52.012;4.346;2022-08-11T15:44:25;2.88;;;1.80;;
51987;SDS011;38003;52.012;4.346;2022-08-11T15:47:32;5.50;;;1.90;;
51987;SDS011;38003;52.012;4.346;2022-08-11T15:50:08;3.30;;;1.95;;
51987;SDS011;38003;52.012;4.346;2022-08-11T15:52:45;4.47;;;1.90;;
51987;SDS011;38003;52.012;4.346;2022-08-11T15:55:17;2.92;;;2.25;;
51987;SDS011;38003;52.012;4.346;2022-08-11T15:57:46;3.70;;;2.20;;
51987;SDS011;38003;52.012;4.346;2022-08-11T16:00:35;2.00;;;1.80;;
51987;SDS011;38003;52.012;4.346;2022-08-11T16:03:30;2.20;;;1.70;;
51987;SDS011;38003;52.012;4.346;2022-08-11T16:06:35;4.45;;;1.77;;
51987;SDS011;38003;52.012;4.346;2022-08-11T16:09:14;1.65;;;1.50;;
51987;SDS011;38003;52.012;4.346;2022-08-11T16:11:47;6.20;;;1.65;;
51987;SDS011;38003;52.012;4.346;2022-08-11T16:14:17;3.15;;;1.92;;
51987;SDS011;38003;52.012;4.346;2022-08-11T16:17:05;4.97;;;1.95;;
51987;SDS011;38003;52.012;4.346;2022-08-11T16:19:36;2.67;;;1.48;;
51987;SDS011;38003;52.012;4.346;2022-08-11T16:22:11;3.95;;;1.88;;
51987;SDS011;38003;52.012;4.346;2022-08-11T16:24:45;3.17;;;1.80;;
51987;SDS011;38003;52.012;4.346;2022-08-11T16:27:37;3.45;;;1.88;;
51987;SDS011;38003;52.012;4.346;2022-08-11T16:30:09;3.15;;;1.77;;
51987;SDS011;38003;52.012;4.346;2022-08-11T16:32:40;2.67;;;1.60;;
51987;SDS011;38003;52.012;4.346;2022-08-11T16:35:14;1.75;;;1.50;;
51987;SDS011;38003;52.012;4.346;2022-08-11T16:38:04;3.85;;;1.50;;
51987;SDS011;38003;52.012;4.346;2022-08-11T16:40:52;5.68;;;1.77;;
51987;SDS011;38003;52.012;4.346;2022-08-11T16:43:23;2.38;;;1.63;;
51987;SDS011;38003;52.012;4.346;2022-08-11T16:46:13;6.18;;;1.42;;
51987;SDS011;38003;52.012;4.346;2022-08-11T16:49:01;3.55;;;1.80;;
51987;SDS011;38003;52.012;4.346;2022-08-11T16:51:31;2.08;;;1.80;;
51987;SDS011;38003;52.012;4.346;2022-08-11T16:54:01;3.97;;;1.65;;
51987;SDS011;38003;52.012;4.346;2022-08-11T16:56:33;2.20;;;1.63;;
51987;SDS011;38003;52.012;4.346;2022-08-11T16:59:05;2.55;;;1.60;;
51987;SDS011;38003;52.012;4.346;2022-08-11T17:01:47;4.47;;;1.52;;
51987;SDS011;38003;52.012;4.346;2022-08-11T17:04:26;4.03;;;1.77;;
51987;SDS011;38003;52.012;4.346;2022-08-11T17:07:15;7.00;;;1.45;;
51987;SDS011;38003;52.012;4.346;2022-08-11T17:10:14;2.28;;;1.33;;
51987;SDS011;38003;52.012;4.346;2022-08-11T17:13:20;2.95;;;1.30;;
51987;SDS011;38003;52.012;4.346;2022-08-11T17:15:52;1.40;;;1.30;;
51987;SDS011;38003;52.012;4.346;2022-08-11T17:18:35;1.50;;;1.40;;
51987;SDS011;38003;52.012;4.346;2022-08-11T17:21:09;4.50;;;1.60;;
51987;SDS011;38003;52.012;4.346;2022-08-11T17:23:41;1.80;;;1.42;;
51987;SDS011;38003;52.012;4.346;2022-08-11T17:26:15;1.90;;;1.30;;
51987;SDS011;38003;52.012;4.346;2022-08-11T17:28:50;1.88;;;1.40;;
51987;SDS011;38003;52.012;4.346;2022-08-11T17:31:22;4.35;;;1.60;;
51987;SDS011;38003;52.012;4.346;2022-08-11T17:34:10;3.28;;;1.40;;